Aviation Digital Data Service (ADDS)

Output produced by METARs form (0242 UTC 22 July 2017)
found at http://www.aviationweather.gov/adds/metars/
 
NSFA 220200Z 06011KT 9999 FEW026 SCT290 32/23 Q1011
NSFA 220100Z 07010KT 9999 FEW028 33/22 Q1012
NSFA 212000Z 08010KT 9999 BKN022 29/24 Q1015
NSFA 211900Z 08008KT 9999 BKN022 27/24 Q1014
NSFA 211800Z 10005KT 9999 SCT024 25/24 Q1014
NSFA 211700Z 10004KT 9999 FEW026 23/22 Q1013
NSFA 211500Z 00000KT 9999 FEW025 BKN140 24/23 Q1013
NSFA 211400Z 00000KT 9999 FEW025 SCT150 24/23 Q1014
NSFA 211300Z 11003KT 9999 FEW024 24/23 Q1014
NSFA 211100Z 14004KT 9999 FEW024 26/23 Q1015
NSFA 211000Z 10005KT 9999 FEW020 BKN140 25/23 Q1015
NSFA 210900Z 10006KT 9999 SCT025 26/24 Q1015
NSFA 210800Z 10005KT 9999 FEW026 25/23 Q1015
NSFA 210700Z 10004KT 9999 FEW024 SCT140 26/23 Q1014
NSFA 210600Z 10004KT 9999 FEW024 27/23 Q1013
NSFA 210500Z 09010KT 9999 FEW022 29/24 Q1013